Hialeah, FL (33010)

5:58 AM EDT on July 27, 2016 (GMT -0400)
Little Havana-West Flagler Street in Miami Florida | | Change Station

Elev 13 ft 25.77 °N, 80.25 °W | Updated 3 seconds ago

Scattered Clouds
Scattered Clouds
77.5 °F
Feels Like 79 °F
N
2.0
Wind Variable Wind from North
Gusts 2.0 mph

Today
High -- | Low -- °F
--% Chance of Precip.
Yesterday
High -- | Low -- °F
Precip. -- in
Pressure 30.04 in
Visibility 10.0 miles
Clouds Few 2500 ft
Few 14000 ft
Scattered Clouds 25000 ft
Heat Index 79 °F
Dew Point 76 °F
Humidity 94%
Rainfall 0.00 in
Snow Depth Not available.
6:45 AM 8:09 PM
Last Quarter, 45% visible
METAR KMIA 270953Z 03003KT 10SM FEW025 FEW140 SCT250 27/24 A3004 RMK AO2 SLP173 T02670239
Pressure 30.04 in
Visibility 10.0 miles
Clouds Few 2500 ft
Few 14000 ft
Scattered Clouds 25000 ft
Heat Index 79 °F
Dew Point 76 °F
Humidity 94%
Rainfall 0.00 in
Snow Depth Not available.
6:45 AM 8:09 PM
Last Quarter, 45% visible
METAR KMIA 270953Z 03003KT 10SM FEW025 FEW140 SCT250 27/24 A3004 RMK AO2 SLP173 T02670239

10-Day Weather Forecast

Almanac

Astronomy

Jul. 27, 2016 Rise Set
Actual Time
Civil Twilight
Nautical Twilight
Astronomical Twilight
Moon
Length of Visible Light
Length of Day
Tomorrow will be .
, % of the Moon is Illuminated

Today's Extremes

State Highs State Lows

Community

WunderPhotos

Upload Photos

1,927,818 photos uploaded!

WunderBlog® & News

Nearby

Air Quality

  Air Quality AQ Index Pollutant
Not available.

Snow Depth

Station Depth Elevation

Earthquake Activity

City Distance Mag. Time & Date
Minimum magnitude displayed is 2.5.

Coastal Water Temperatures

Place Temperature

Stations

Nearby Weather Stations

Station Location Temp. Windchill Dew Point Humidity Wind Precip. Elev Updated Type
                   

Watches & Warnings

There are currently no watches in effect.